sensor_id;sensor_type;location;lat;lon;timestamp;temperature;humidity
7384;DHT22;3733;47.994;8.820;2022-10-31T00:01:40;9.00;99.90
7384;DHT22;3733;47.994;8.820;2022-10-31T00:04:06;9.00;99.90
7384;DHT22;3733;47.994;8.820;2022-10-31T00:06:32;8.90;99.90
7384;DHT22;3733;47.994;8.820;2022-10-31T00:09:03;8.90;99.90
7384;DHT22;3733;47.994;8.820;2022-10-31T00:11:29;8.90;99.90
7384;DHT22;3733;47.994;8.820;2022-10-31T00:13:54;8.80;99.90
7384;DHT22;3733;47.994;8.820;2022-10-31T00:16:23;8.80;99.90
7384;DHT22;3733;47.994;8.820;2022-10-31T00:18:53;8.80;99.90
7384;DHT22;3733;47.994;8.820;2022-10-31T00:21:19;8.80;99.90
7384;DHT22;3733;47.994;8.820;2022-10-31T00:23:45;8.70;99.90
7384;DHT22;3733;47.994;8.820;2022-10-31T00:26:11;8.70;99.90
7384;DHT22;3733;47.994;8.820;2022-10-31T00:28:36;8.70;99.90
7384;DHT22;3733;47.994;8.820;2022-10-31T00:31:04;8.70;99.90
7384;DHT22;3733;47.994;8.820;2022-10-31T00:33:33;8.70;99.90
7384;DHT22;3733;47.994;8.820;2022-10-31T00:35:59;8.60;99.90
7384;DHT22;3733;47.994;8.820;2022-10-31T00:38:24;8.60;99.90
7384;DHT22;3733;47.994;8.820;2022-10-31T00:40:50;8.60;99.90
7384;DHT22;3733;47.994;8.820;2022-10-31T00:43:16;8.60;99.90
7384;DHT22;3733;47.994;8.820;2022-10-31T00:45:42;8.60;99.90
7384;DHT22;3733;47.994;8.820;2022-10-31T00:48:08;8.60;99.90
7384;DHT22;3733;47.994;8.820;2022-10-31T00:50:34;8.60;99.90
7384;DHT22;3733;47.994;8.820;2022-10-31T00:53:00;8.60;99.90
7384;DHT22;3733;47.994;8.820;2022-10-31T00:55:26;8.50;99.90
7384;DHT22;3733;47.994;8.820;2022-10-31T00:57:52;8.50;99.90
7384;DHT22;3733;47.994;8.820;2022-10-31T01:00:17;8.50;99.90
7384;DHT22;3733;47.994;8.820;2022-10-31T01:02:43;8.50;99.90
7384;DHT22;3733;47.994;8.820;2022-10-31T01:05:09;8.50;99.90
7384;DHT22;3733;47.994;8.820;2022-10-31T01:07:39;8.50;99.90
7384;DHT22;3733;47.994;8.820;2022-10-31T01:10:06;8.50;99.90
7384;DHT22;3733;47.994;8.820;2022-10-31T01:12:39;8.50;99.90
7384;DHT22;3733;47.994;8.820;2022-10-31T01:15:06;8.50;99.90
7384;DHT22;3733;47.994;8.820;2022-10-31T01:17:32;8.40;99.90
7384;DHT22;3733;47.994;8.820;2022-10-31T01:19:57;8.40;99.90
7384;DHT22;3733;47.994;8.820;2022-10-31T01:22:23;8.40;99.90
7384;DHT22;3733;47.994;8.820;2022-10-31T01:24:49;8.30;99.90
7384;DHT22;3733;47.994;8.820;2022-10-31T01:27:14;8.30;99.90
7384;DHT22;3733;47.994;8.820;2022-10-31T01:29:40;8.30;99.90
7384;DHT22;3733;47.994;8.820;2022-10-31T01:32:05;8.30;99.90
7384;DHT22;3733;47.994;8.820;2022-10-31T01:34:31;8.30;99.90
7384;DHT22;3733;47.994;8.820;2022-10-31T01:36:56;8.30;99.90
7384;DHT22;3733;47.994;8.820;2022-10-31T01:39:22;8.20;99.90
7384;DHT22;3733;47.994;8.820;2022-10-31T01:41:50;8.20;99.90
7384;DHT22;3733;47.994;8.820;2022-10-31T01:46:58;8.10;99.90
7384;DHT22;3733;47.994;8.820;2022-10-31T01:49:38;8.10;99.90
7384;DHT22;3733;47.994;8.820;2022-10-31T01:54:47;8.00;99.90
7384;DHT22;3733;47.994;8.820;2022-10-31T01:57:17;8.00;99.90
7384;DHT22;3733;47.994;8.820;2022-10-31T01:59:47;8.00;99.90
7384;DHT22;3733;47.994;8.820;2022-10-31T02:02:15;8.00;99.90
7384;DHT22;3733;47.994;8.820;2022-10-31T02:04:43;8.00;99.90
7384;DHT22;3733;47.994;8.820;2022-10-31T02:07:14;8.00;99.90
7384;DHT22;3733;47.994;8.820;2022-10-31T02:09:42;8.00;99.90
7384;DHT22;3733;47.994;8.820;2022-10-31T02:12:10;7.90;99.90
7384;DHT22;3733;47.994;8.820;2022-10-31T02:14:36;7.90;99.90
7384;DHT22;3733;47.994;8.820;2022-10-31T02:17:03;7.90;99.90
7384;DHT22;3733;47.994;8.820;2022-10-31T02:36:04;7.80;99.90
7384;DHT22;3733;47.994;8.820;2022-10-31T02:46:44;7.70;99.90
7384;DHT22;3733;47.994;8.820;2022-10-31T02:52:17;7.70;99.90
7384;DHT22;3733;47.994;8.820;2022-10-31T02:54:46;7.60;99.90
7384;DHT22;3733;47.994;8.820;2022-10-31T02:57:13;7.60;99.90
7384;DHT22;3733;47.994;8.820;2022-10-31T02:59:46;7.60;99.90
7384;DHT22;3733;47.994;8.820;2022-10-31T03:02:43;7.60;99.90
7384;DHT22;3733;47.994;8.820;2022-10-31T03:07:59;7.50;99.90
7384;DHT22;3733;47.994;8.820;2022-10-31T03:10:58;7.50;99.90
7384;DHT22;3733;47.994;8.820;2022-10-31T03:13:35;7.50;99.90
7384;DHT22;3733;47.994;8.820;2022-10-31T03:16:25;7.50;99.90
7384;DHT22;3733;47.994;8.820;2022-10-31T03:19:14;7.50;99.90
7384;DHT22;3733;47.994;8.820;2022-10-31T03:21:52;7.50;99.90
7384;DHT22;3733;47.994;8.820;2022-10-31T03:24:20;7.50;99.90
7384;DHT22;3733;47.994;8.820;2022-10-31T03:26:51;7.40;99.90
7384;DHT22;3733;47.994;8.820;2022-10-31T03:29:21;7.40;99.90
7384;DHT22;3733;47.994;8.820;2022-10-31T03:31:55;7.40;99.90
7384;DHT22;3733;47.994;8.820;2022-10-31T03:34:23;7.40;99.90
7384;DHT22;3733;47.994;8.820;2022-10-31T03:36:53;7.40;99.90
7384;DHT22;3733;47.994;8.820;2022-10-31T03:39:22;7.40;99.90
7384;DHT22;3733;47.994;8.820;2022-10-31T03:41:56;7.40;99.90
7384;DHT22;3733;47.994;8.820;2022-10-31T03:44:23;7.40;99.90
7384;DHT22;3733;47.994;8.820;2022-10-31T03:46:49;7.40;99.90
7384;DHT22;3733;47.994;8.820;2022-10-31T03:49:16;7.30;99.90
7384;DHT22;3733;47.994;8.820;2022-10-31T03:54:33;7.30;99.90
7384;DHT22;3733;47.994;8.820;2022-10-31T03:57:24;7.30;99.90
7384;DHT22;3733;47.994;8.820;2022-10-31T03:59:55;7.20;99.90
7384;DHT22;3733;47.994;8.820;2022-10-31T04:02:28;7.20;99.90
7384;DHT22;3733;47.994;8.820;2022-10-31T04:04:56;7.20;99.90
7384;DHT22;3733;47.994;8.820;2022-10-31T04:07:23;7.10;99.90
7384;DHT22;3733;47.994;8.820;2022-10-31T04:09:52;7.10;99.90
7384;DHT22;3733;47.994;8.820;2022-10-31T04:12:19;7.10;99.90
7384;DHT22;3733;47.994;8.820;2022-10-31T04:14:48;7.10;99.90
7384;DHT22;3733;47.994;8.820;2022-10-31T04:17:16;7.10;99.90
7384;DHT22;3733;47.994;8.820;2022-10-31T04:19:43;7.00;99.90
7384;DHT22;3733;47.994;8.820;2022-10-31T04:22:08;7.00;99.90
7384;DHT22;3733;47.994;8.820;2022-10-31T04:24:34;7.00;99.90
7384;DHT22;3733;47.994;8.820;2022-10-31T04:27:00;7.00;99.90
7384;DHT22;3733;47.994;8.820;2022-10-31T04:29:25;7.00;99.90
7384;DHT22;3733;47.994;8.820;2022-10-31T04:31:51;7.00;99.90
7384;DHT22;3733;47.994;8.820;2022-10-31T04:34:16;7.00;99.90
7384;DHT22;3733;47.994;8.820;2022-10-31T04:36:42;7.00;99.90
7384;DHT22;3733;47.994;8.820;2022-10-31T04:39:08;7.00;99.90
7384;DHT22;3733;47.994;8.820;2022-10-31T04:41:33;7.00;99.90
7384;DHT22;3733;47.994;8.820;2022-10-31T04:43:59;7.00;99.90
7384;DHT22;3733;47.994;8.820;2022-10-31T04:46:24;6.90;99.90
7384;DHT22;3733;47.994;8.820;2022-10-31T04:48:50;6.90;99.90
7384;DHT22;3733;47.994;8.820;2022-10-31T04:51:16;6.90;99.90
7384;DHT22;3733;47.994;8.820;2022-10-31T04:53:41;6.90;99.90
7384;DHT22;3733;47.994;8.820;2022-10-31T04:56:07;6.80;99.90
7384;DHT22;3733;47.994;8.820;2022-10-31T04:58:32;6.80;99.90
7384;DHT22;3733;47.994;8.820;2022-10-31T05:00:58;6.80;99.90
7384;DHT22;3733;47.994;8.820;2022-10-31T05:03:23;6.80;99.90
7384;DHT22;3733;47.994;8.820;2022-10-31T05:05:49;6.70;99.90
7384;DHT22;3733;47.994;8.820;2022-10-31T05:08:15;6.70;99.90
7384;DHT22;3733;47.994;8.820;2022-10-31T05:10:41;6.70;99.90
7384;DHT22;3733;47.994;8.820;2022-10-31T05:13:06;6.70;99.90
7384;DHT22;3733;47.994;8.820;2022-10-31T05:15:32;6.60;99.90
7384;DHT22;3733;47.994;8.820;2022-10-31T05:17:58;6.60;99.90
7384;DHT22;3733;47.994;8.820;2022-10-31T05:20:26;6.60;99.90
7384;DHT22;3733;47.994;8.820;2022-10-31T05:22:54;6.60;99.90
7384;DHT22;3733;47.994;8.820;2022-10-31T05:25:22;6.60;99.90
7384;DHT22;3733;47.994;8.820;2022-10-31T05:27:50;6.60;99.90
7384;DHT22;3733;47.994;8.820;2022-10-31T05:30:18;6.60;99.90
7384;DHT22;3733;47.994;8.820;2022-10-31T05:32:46;6.60;99.90
7384;DHT22;3733;47.994;8.820;2022-10-31T05:35:18;6.60;99.90
7384;DHT22;3733;47.994;8.820;2022-10-31T05:37:44;6.50;99.90
7384;DHT22;3733;47.994;8.820;2022-10-31T05:40:12;6.50;99.90
7384;DHT22;3733;47.994;8.820;2022-10-31T05:42:38;6.50;99.90
7384;DHT22;3733;47.994;8.820;2022-10-31T05:45:06;6.50;99.90
7384;DHT22;3733;47.994;8.820;2022-10-31T05:47:32;6.50;99.90
7384;DHT22;3733;47.994;8.820;2022-10-31T05:49:58;6.50;99.90
7384;DHT22;3733;47.994;8.820;2022-10-31T05:52:24;6.50;99.90
7384;DHT22;3733;47.994;8.820;2022-10-31T05:54:50;6.40;99.90
7384;DHT22;3733;47.994;8.820;2022-10-31T05:57:15;6.50;99.90
7384;DHT22;3733;47.994;8.820;2022-10-31T05:59:41;6.40;99.90
7384;DHT22;3733;47.994;8.820;2022-10-31T06:02:07;6.40;99.90
7384;DHT22;3733;47.994;8.820;2022-10-31T06:04:32;6.40;99.90
7384;DHT22;3733;47.994;8.820;2022-10-31T06:06:58;6.40;99.90
7384;DHT22;3733;47.994;8.820;2022-10-31T06:09:23;6.40;99.90
7384;DHT22;3733;47.994;8.820;2022-10-31T06:11:49;6.40;99.90
7384;DHT22;3733;47.994;8.820;2022-10-31T06:14:15;6.40;99.90
7384;DHT22;3733;47.994;8.820;2022-10-31T06:16:40;6.40;99.90
7384;DHT22;3733;47.994;8.820;2022-10-31T06:19:06;6.40;99.90
7384;DHT22;3733;47.994;8.820;2022-10-31T06:21:31;6.50;99.90
7384;DHT22;3733;47.994;8.820;2022-10-31T06:23:57;6.50;99.90
7384;DHT22;3733;47.994;8.820;2022-10-31T06:26:23;6.50;99.90
7384;DHT22;3733;47.994;8.820;2022-10-31T06:28:48;6.50;99.90
7384;DHT22;3733;47.994;8.820;2022-10-31T06:31:14;6.50;99.90
7384;DHT22;3733;47.994;8.820;2022-10-31T06:33:41;6.50;99.90
7384;DHT22;3733;47.994;8.820;2022-10-31T06:36:08;6.50;99.90
7384;DHT22;3733;47.994;8.820;2022-10-31T06:38:33;6.60;99.90
7384;DHT22;3733;47.994;8.820;2022-10-31T06:41:03;6.60;99.90
7384;DHT22;3733;47.994;8.820;2022-10-31T06:43:29;6.60;99.90
7384;DHT22;3733;47.994;8.820;2022-10-31T06:45:55;6.60;99.90
7384;DHT22;3733;47.994;8.820;2022-10-31T06:48:21;6.60;99.90
7384;DHT22;3733;47.994;8.820;2022-10-31T06:50:46;6.70;99.90
7384;DHT22;3733;47.994;8.820;2022-10-31T06:53:12;6.70;99.90
7384;DHT22;3733;47.994;8.820;2022-10-31T06:55:39;6.70;99.90
7384;DHT22;3733;47.994;8.820;2022-10-31T06:58:05;6.70;99.90
7384;DHT22;3733;47.994;8.820;2022-10-31T07:00:31;6.70;99.90
7384;DHT22;3733;47.994;8.820;2022-10-31T07:02:59;6.80;99.90
7384;DHT22;3733;47.994;8.820;2022-10-31T07:05:25;6.80;99.90
7384;DHT22;3733;47.994;8.820;2022-10-31T07:07:59;6.90;99.90
7384;DHT22;3733;47.994;8.820;2022-10-31T07:10:27;7.00;99.90
7384;DHT22;3733;47.994;8.820;2022-10-31T07:12:57;7.00;99.90
7384;DHT22;3733;47.994;8.820;2022-10-31T07:15:24;7.10;99.90
7384;DHT22;3733;47.994;8.820;2022-10-31T07:17:50;7.10;99.90
7384;DHT22;3733;47.994;8.820;2022-10-31T07:20:16;7.20;99.90
7384;DHT22;3733;47.994;8.820;2022-10-31T07:22:42;7.20;99.90
7384;DHT22;3733;47.994;8.820;2022-10-31T07:25:08;7.30;99.90
7384;DHT22;3733;47.994;8.820;2022-10-31T07:27:40;7.40;99.90
7384;DHT22;3733;47.994;8.820;2022-10-31T07:30:09;7.50;99.90
7384;DHT22;3733;47.994;8.820;2022-10-31T07:32:45;7.50;99.90
7384;DHT22;3733;47.994;8.820;2022-10-31T07:35:14;7.60;99.90
7384;DHT22;3733;47.994;8.820;2022-10-31T07:37:41;7.70;99.90
7384;DHT22;3733;47.994;8.820;2022-10-31T07:40:08;7.70;99.90
7384;DHT22;3733;47.994;8.820;2022-10-31T07:42:47;7.80;99.90
7384;DHT22;3733;47.994;8.820;2022-10-31T07:45:19;7.90;99.90
7384;DHT22;3733;47.994;8.820;2022-10-31T07:47:49;8.00;99.90
7384;DHT22;3733;47.994;8.820;2022-10-31T07:50:19;8.00;99.90
7384;DHT22;3733;47.994;8.820;2022-10-31T07:52:45;8.10;99.90
7384;DHT22;3733;47.994;8.820;2022-10-31T07:55:11;8.20;99.90
7384;DHT22;3733;47.994;8.820;2022-10-31T07:57:37;8.30;99.90
7384;DHT22;3733;47.994;8.820;2022-10-31T08:00:07;8.30;99.90
7384;DHT22;3733;47.994;8.820;2022-10-31T08:02:33;8.30;99.90
7384;DHT22;3733;47.994;8.820;2022-10-31T08:04:58;8.40;99.90
7384;DHT22;3733;47.994;8.820;2022-10-31T08:07:25;8.50;99.90
7384;DHT22;3733;47.994;8.820;2022-10-31T08:09:51;8.50;99.90
7384;DHT22;3733;47.994;8.820;2022-10-31T08:12:16;8.50;99.90
7384;DHT22;3733;47.994;8.820;2022-10-31T08:14:42;8.60;99.90
7384;DHT22;3733;47.994;8.820;2022-10-31T08:17:08;8.70;99.90
7384;DHT22;3733;47.994;8.820;2022-10-31T08:19:33;8.80;99.90
7384;DHT22;3733;47.994;8.820;2022-10-31T08:21:59;8.80;99.90
7384;DHT22;3733;47.994;8.820;2022-10-31T08:24:25;8.90;99.90
7384;DHT22;3733;47.994;8.820;2022-10-31T08:26:51;9.00;99.90
7384;DHT22;3733;47.994;8.820;2022-10-31T08:29:17;9.10;99.90
7384;DHT22;3733;47.994;8.820;2022-10-31T08:31:43;9.20;99.90
7384;DHT22;3733;47.994;8.820;2022-10-31T08:34:09;9.30;99.90
7384;DHT22;3733;47.994;8.820;2022-10-31T08:36:34;9.40;99.90
7384;DHT22;3733;47.994;8.820;2022-10-31T08:39:00;9.50;99.90
7384;DHT22;3733;47.994;8.820;2022-10-31T08:41:26;9.60;99.90
7384;DHT22;3733;47.994;8.820;2022-10-31T08:43:52;9.70;99.90
7384;DHT22;3733;47.994;8.820;2022-10-31T08:46:17;9.80;99.90
7384;DHT22;3733;47.994;8.820;2022-10-31T08:48:43;9.90;99.90
7384;DHT22;3733;47.994;8.820;2022-10-31T08:51:10;10.10;99.90
7384;DHT22;3733;47.994;8.820;2022-10-31T08:53:35;10.20;99.90
7384;DHT22;3733;47.994;8.820;2022-10-31T08:56:01;10.30;99.90
7384;DHT22;3733;47.994;8.820;2022-10-31T08:58:27;10.40;99.90
7384;DHT22;3733;47.994;8.820;2022-10-31T09:00:54;10.60;99.90
7384;DHT22;3733;47.994;8.820;2022-10-31T09:03:30;10.70;99.90
7384;DHT22;3733;47.994;8.820;2022-10-31T09:05:58;10.90;99.90
7384;DHT22;3733;47.994;8.820;2022-10-31T09:08:24;11.00;99.90
7384;DHT22;3733;47.994;8.820;2022-10-31T09:10:51;11.10;99.90
7384;DHT22;3733;47.994;8.820;2022-10-31T09:13:19;11.20;99.90
7384;DHT22;3733;47.994;8.820;2022-10-31T09:15:46;11.40;99.90
7384;DHT22;3733;47.994;8.820;2022-10-31T09:18:14;11.50;99.90
7384;DHT22;3733;47.994;8.820;2022-10-31T09:20:42;11.70;99.90
7384;DHT22;3733;47.994;8.820;2022-10-31T09:23:16;11.90;99.90
7384;DHT22;3733;47.994;8.820;2022-10-31T09:25:42;12.00;99.90
7384;DHT22;3733;47.994;8.820;2022-10-31T09:28:10;12.20;99.90
7384;DHT22;3733;47.994;8.820;2022-10-31T09:30:36;12.30;99.90
7384;DHT22;3733;47.994;8.820;2022-10-31T09:33:12;12.50;99.90
7384;DHT22;3733;47.994;8.820;2022-10-31T09:35:39;12.60;99.90
7384;DHT22;3733;47.994;8.820;2022-10-31T09:38:07;12.70;99.90
7384;DHT22;3733;47.994;8.820;2022-10-31T09:40:46;12.80;99.90
7384;DHT22;3733;47.994;8.820;2022-10-31T09:46:14;13.10;99.90
7384;DHT22;3733;47.994;8.820;2022-10-31T09:51:33;13.50;99.90
7384;DHT22;3733;47.994;8.820;2022-10-31T09:54:02;13.70;99.90
7384;DHT22;3733;47.994;8.820;2022-10-31T09:56:31;13.90;99.90
7384;DHT22;3733;47.994;8.820;2022-10-31T09:58:59;14.00;99.90
7384;DHT22;3733;47.994;8.820;2022-10-31T10:01:47;14.10;99.90
7384;DHT22;3733;47.994;8.820;2022-10-31T10:04:53;14.20;99.90
7384;DHT22;3733;47.994;8.820;2022-10-31T10:07:43;14.20;99.90
7384;DHT22;3733;47.994;8.820;2022-10-31T10:13:15;14.60;99.90
7384;DHT22;3733;47.994;8.820;2022-10-31T10:26:45;15.60;97.80
7384;DHT22;3733;47.994;8.820;2022-10-31T10:32:20;15.80;97.50
7384;DHT22;3733;47.994;8.820;2022-10-31T10:34:51;16.00;95.40
7384;DHT22;3733;47.994;8.820;2022-10-31T10:37:31;16.00;94.00
7384;DHT22;3733;47.994;8.820;2022-10-31T10:40:16;16.10;94.90
7384;DHT22;3733;47.994;8.820;2022-10-31T10:42:45;16.30;95.20
7384;DHT22;3733;47.994;8.820;2022-10-31T10:45:34;16.30;94.70
7384;DHT22;3733;47.994;8.820;2022-10-31T10:50:55;16.50;94.00
7384;DHT22;3733;47.994;8.820;2022-10-31T10:53:43;16.50;93.90
7384;DHT22;3733;47.994;8.820;2022-10-31T10:59:12;16.60;92.30
7384;DHT22;3733;47.994;8.820;2022-10-31T11:01:40;16.70;92.50
7384;DHT22;3733;47.994;8.820;2022-10-31T11:04:30;16.80;91.20
7384;DHT22;3733;47.994;8.820;2022-10-31T11:06:57;17.00;90.30
7384;DHT22;3733;47.994;8.820;2022-10-31T11:09:23;17.10;88.10
7384;DHT22;3733;47.994;8.820;2022-10-31T11:11:49;17.10;86.70
7384;DHT22;3733;47.994;8.820;2022-10-31T11:14:16;17.10;87.60
7384;DHT22;3733;47.994;8.820;2022-10-31T11:16:45;17.10;91.00
7384;DHT22;3733;47.994;8.820;2022-10-31T11:19:20;17.10;90.70
7384;DHT22;3733;47.994;8.820;2022-10-31T11:21:47;17.00;91.40
7384;DHT22;3733;47.994;8.820;2022-10-31T11:26:48;16.90;95.30
7384;DHT22;3733;47.994;8.820;2022-10-31T11:31:44;16.70;97.90
7384;DHT22;3733;47.994;8.820;2022-10-31T11:34:19;16.60;97.00
7384;DHT22;3733;47.994;8.820;2022-10-31T11:36:46;16.60;94.60
7384;DHT22;3733;47.994;8.820;2022-10-31T11:39:21;16.50;92.80
7384;DHT22;3733;47.994;8.820;2022-10-31T11:41:49;16.50;94.60
7384;DHT22;3733;47.994;8.820;2022-10-31T11:46:54;16.40;98.60
7384;DHT22;3733;47.994;8.820;2022-10-31T11:49:43;16.50;99.90
7384;DHT22;3733;47.994;8.820;2022-10-31T11:52:13;16.50;99.90
7384;DHT22;3733;47.994;8.820;2022-10-31T11:55:36;16.50;99.90
7384;DHT22;3733;47.994;8.820;2022-10-31T11:57:51;16.50;99.90
7384;DHT22;3733;47.994;8.820;2022-10-31T12:00:30;16.50;99.90
7384;DHT22;3733;47.994;8.820;2022-10-31T12:05:49;16.50;99.90
7384;DHT22;3733;47.994;8.820;2022-10-31T12:08:18;16.50;99.90
7384;DHT22;3733;47.994;8.820;2022-10-31T12:13:30;16.50;99.90
7384;DHT22;3733;47.994;8.820;2022-10-31T12:16:22;16.50;99.90
7384;DHT22;3733;47.994;8.820;2022-10-31T12:19:05;16.60;98.40
7384;DHT22;3733;47.994;8.820;2022-10-31T12:24:35;16.80;91.60
7384;DHT22;3733;47.994;8.820;2022-10-31T12:35:15;17.70;81.20
7384;DHT22;3733;47.994;8.820;2022-10-31T12:40:29;18.00;81.50
7384;DHT22;3733;47.994;8.820;2022-10-31T12:46:02;18.10;81.80
7384;DHT22;3733;47.994;8.820;2022-10-31T12:59:51;19.40;75.60
7384;DHT22;3733;47.994;8.820;2022-10-31T13:05:12;20.20;72.60
7384;DHT22;3733;47.994;8.820;2022-10-31T13:07:46;20.50;68.70
7384;DHT22;3733;47.994;8.820;2022-10-31T13:10:24;20.80;65.80
7384;DHT22;3733;47.994;8.820;2022-10-31T13:12:54;21.50;64.30
7384;DHT22;3733;47.994;8.820;2022-10-31T13:15:27;22.70;61.90
7384;DHT22;3733;47.994;8.820;2022-10-31T13:17:59;23.70;59.20
7384;DHT22;3733;47.994;8.820;2022-10-31T13:20:34;24.50;57.20
7384;DHT22;3733;47.994;8.820;2022-10-31T13:25:40;25.80;52.80
7384;DHT22;3733;47.994;8.820;2022-10-31T13:28:46;26.20;51.40
7384;DHT22;3733;47.994;8.820;2022-10-31T13:31:12;26.30;50.30
7384;DHT22;3733;47.994;8.820;2022-10-31T13:33:54;26.30;50.60
7384;DHT22;3733;47.994;8.820;2022-10-31T13:36:38;26.20;51.20
7384;DHT22;3733;47.994;8.820;2022-10-31T13:44:26;25.60;52.00
7384;DHT22;3733;47.994;8.820;2022-10-31T13:46:54;25.40;52.50
7384;DHT22;3733;47.994;8.820;2022-10-31T13:54:42;25.00;53.10
7384;DHT22;3733;47.994;8.820;2022-10-31T13:57:31;24.90;53.60
7384;DHT22;3733;47.994;8.820;2022-10-31T14:02:48;25.00;53.50
7384;DHT22;3733;47.994;8.820;2022-10-31T14:05:32;25.10;53.10
7384;DHT22;3733;47.994;8.820;2022-10-31T14:08:01;25.40;53.10
7384;DHT22;3733;47.994;8.820;2022-10-31T14:10:29;25.90;52.00
7384;DHT22;3733;47.994;8.820;2022-10-31T14:15:30;27.00;49.70
7384;DHT22;3733;47.994;8.820;2022-10-31T14:17:59;27.50;48.70
7384;DHT22;3733;47.994;8.820;2022-10-31T14:20:34;28.00;47.70
7384;DHT22;3733;47.994;8.820;2022-10-31T14:28:44;27.00;47.20
7384;DHT22;3733;47.994;8.820;2022-10-31T14:31:39;25.70;49.40
7384;DHT22;3733;47.994;8.820;2022-10-31T14:40:00;22.00;56.20
7384;DHT22;3733;47.994;8.820;2022-10-31T14:42:44;21.20;57.90
7384;DHT22;3733;47.994;8.820;2022-10-31T14:53:29;19.20;70.00
7384;DHT22;3733;47.994;8.820;2022-10-31T14:55:57;18.90;76.30
7384;DHT22;3733;47.994;8.820;2022-10-31T14:58:44;18.60;84.10
7384;DHT22;3733;47.994;8.820;2022-10-31T15:01:32;18.30;90.60
7384;DHT22;3733;47.994;8.820;2022-10-31T15:06:44;18.00;95.40
7384;DHT22;3733;47.994;8.820;2022-10-31T15:09:40;17.80;96.90
7384;DHT22;3733;47.994;8.820;2022-10-31T15:14:49;17.60;99.90
7384;DHT22;3733;47.994;8.820;2022-10-31T15:17:15;17.50;99.90
7384;DHT22;3733;47.994;8.820;2022-10-31T15:19:42;17.50;99.90
7384;DHT22;3733;47.994;8.820;2022-10-31T15:22:14;17.50;99.90
7384;DHT22;3733;47.994;8.820;2022-10-31T15:24:41;17.40;99.90
7384;DHT22;3733;47.994;8.820;2022-10-31T15:27:13;17.40;99.90
7384;DHT22;3733;47.994;8.820;2022-10-31T15:29:48;17.40;99.90
7384;DHT22;3733;47.994;8.820;2022-10-31T15:32:20;17.40;99.90
7384;DHT22;3733;47.994;8.820;2022-10-31T15:34:46;17.30;99.90
7384;DHT22;3733;47.994;8.820;2022-10-31T15:37:14;17.30;99.90
7384;DHT22;3733;47.994;8.820;2022-10-31T15:39:40;17.20;99.90
7384;DHT22;3733;47.994;8.820;2022-10-31T15:44:58;17.00;99.90
7384;DHT22;3733;47.994;8.820;2022-10-31T15:47:25;16.90;99.90
7384;DHT22;3733;47.994;8.820;2022-10-31T15:49:56;16.80;99.90
7384;DHT22;3733;47.994;8.820;2022-10-31T15:55:22;16.60;99.90
7384;DHT22;3733;47.994;8.820;2022-10-31T15:57:51;16.50;99.90
7384;DHT22;3733;47.994;8.820;2022-10-31T16:00:27;16.30;99.90
7384;DHT22;3733;47.994;8.820;2022-10-31T16:08:33;15.80;99.90
7384;DHT22;3733;47.994;8.820;2022-10-31T16:13:35;15.50;99.90
7384;DHT22;3733;47.994;8.820;2022-10-31T16:16:03;15.30;99.90
7384;DHT22;3733;47.994;8.820;2022-10-31T16:18:35;15.20;99.90
7384;DHT22;3733;47.994;8.820;2022-10-31T16:21:02;15.10;99.90
7384;DHT22;3733;47.994;8.820;2022-10-31T16:23:28;15.00;99.90
7384;DHT22;3733;47.994;8.820;2022-10-31T16:25:54;14.90;99.90
7384;DHT22;3733;47.994;8.820;2022-10-31T16:28:25;14.70;99.90
7384;DHT22;3733;47.994;8.820;2022-10-31T16:30:55;14.60;99.90
7384;DHT22;3733;47.994;8.820;2022-10-31T16:38:57;14.30;99.90
7384;DHT22;3733;47.994;8.820;2022-10-31T16:41:23;14.30;99.90
7384;DHT22;3733;47.994;8.820;2022-10-31T16:43:50;14.20;99.90
7384;DHT22;3733;47.994;8.820;2022-10-31T16:46:24;14.20;99.90
7384;DHT22;3733;47.994;8.820;2022-10-31T16:48:50;14.10;99.90
7384;DHT22;3733;47.994;8.820;2022-10-31T16:51:16;14.10;99.90
7384;DHT22;3733;47.994;8.820;2022-10-31T16:53:41;14.00;99.90
7384;DHT22;3733;47.994;8.820;2022-10-31T16:56:16;13.90;99.90
7384;DHT22;3733;47.994;8.820;2022-10-31T16:58:42;13.80;99.90
7384;DHT22;3733;47.994;8.820;2022-10-31T17:01:08;13.80;99.90
7384;DHT22;3733;47.994;8.820;2022-10-31T17:03:34;13.70;99.90
7384;DHT22;3733;47.994;8.820;2022-10-31T17:06:00;13.60;99.90
7384;DHT22;3733;47.994;8.820;2022-10-31T17:08:26;13.50;99.90
7384;DHT22;3733;47.994;8.820;2022-10-31T17:10:54;13.50;99.90
7384;DHT22;3733;47.994;8.820;2022-10-31T17:13:23;13.40;99.90
7384;DHT22;3733;47.994;8.820;2022-10-31T17:15:52;13.40;99.90
7384;DHT22;3733;47.994;8.820;2022-10-31T17:18:18;13.30;99.90
7384;DHT22;3733;47.994;8.820;2022-10-31T17:20:45;13.30;99.90
7384;DHT22;3733;47.994;8.820;2022-10-31T17:23:12;13.20;99.90
7384;DHT22;3733;47.994;8.820;2022-10-31T17:25:38;13.20;99.90
7384;DHT22;3733;47.994;8.820;2022-10-31T17:28:04;13.10;99.90
7384;DHT22;3733;47.994;8.820;2022-10-31T17:30:31;13.10;99.90
7384;DHT22;3733;47.994;8.820;2022-10-31T17:32:57;13.00;99.90
7384;DHT22;3733;47.994;8.820;2022-10-31T17:35:23;12.90;99.90
7384;DHT22;3733;47.994;8.820;2022-10-31T17:37:48;12.90;99.90
7384;DHT22;3733;47.994;8.820;2022-10-31T17:40:17;12.90;99.90
7384;DHT22;3733;47.994;8.820;2022-10-31T17:42:54;12.90;99.90
7384;DHT22;3733;47.994;8.820;2022-10-31T17:45:21;12.80;99.90
7384;DHT22;3733;47.994;8.820;2022-10-31T17:47:48;12.80;99.90
7384;DHT22;3733;47.994;8.820;2022-10-31T17:50:19;12.80;99.90
7384;DHT22;3733;47.994;8.820;2022-10-31T17:52:45;12.70;99.90
7384;DHT22;3733;47.994;8.820;2022-10-31T17:55:11;12.70;99.90
7384;DHT22;3733;47.994;8.820;2022-10-31T17:57:37;12.60;99.90
7384;DHT22;3733;47.994;8.820;2022-10-31T18:00:06;12.60;99.90
7384;DHT22;3733;47.994;8.820;2022-10-31T18:02:32;12.60;99.90
7384;DHT22;3733;47.994;8.820;2022-10-31T18:04:58;12.50;99.90
7384;DHT22;3733;47.994;8.820;2022-10-31T18:07:26;12.50;99.90
7384;DHT22;3733;47.994;8.820;2022-10-31T18:09:52;12.40;99.90
7384;DHT22;3733;47.994;8.820;2022-10-31T18:12:18;12.40;99.90
7384;DHT22;3733;47.994;8.820;2022-10-31T18:14:43;12.40;99.90
7384;DHT22;3733;47.994;8.820;2022-10-31T18:17:09;12.40;99.90
7384;DHT22;3733;47.994;8.820;2022-10-31T18:19:34;12.30;99.90
7384;DHT22;3733;47.994;8.820;2022-10-31T18:22:00;12.30;99.90
7384;DHT22;3733;47.994;8.820;2022-10-31T18:24:26;12.30;99.90
7384;DHT22;3733;47.994;8.820;2022-10-31T18:26:53;12.30;99.90
7384;DHT22;3733;47.994;8.820;2022-10-31T18:29:19;12.30;99.90
7384;DHT22;3733;47.994;8.820;2022-10-31T18:31:44;12.30;99.90
7384;DHT22;3733;47.994;8.820;2022-10-31T18:34:13;12.30;99.90
7384;DHT22;3733;47.994;8.820;2022-10-31T18:36:39;12.20;99.90
7384;DHT22;3733;47.994;8.820;2022-10-31T18:39:05;12.20;99.90
7384;DHT22;3733;47.994;8.820;2022-10-31T18:41:31;12.10;99.90
7384;DHT22;3733;47.994;8.820;2022-10-31T18:43:57;12.10;99.90
7384;DHT22;3733;47.994;8.820;2022-10-31T18:46:25;12.20;99.90
7384;DHT22;3733;47.994;8.820;2022-10-31T18:48:52;12.10;99.90
7384;DHT22;3733;47.994;8.820;2022-10-31T18:51:18;12.10;99.90
7384;DHT22;3733;47.994;8.820;2022-10-31T18:53:58;12.10;99.90
7384;DHT22;3733;47.994;8.820;2022-10-31T18:56:25;12.00;99.90
7384;DHT22;3733;47.994;8.820;2022-10-31T18:58:51;12.00;99.90
7384;DHT22;3733;47.994;8.820;2022-10-31T19:01:18;12.00;99.90
7384;DHT22;3733;47.994;8.820;2022-10-31T19:03:44;11.90;99.90
7384;DHT22;3733;47.994;8.820;2022-10-31T19:06:10;11.90;99.90
7384;DHT22;3733;47.994;8.820;2022-10-31T19:08:37;11.80;99.90
7384;DHT22;3733;47.994;8.820;2022-10-31T19:11:08;11.80;99.90
7384;DHT22;3733;47.994;8.820;2022-10-31T19:13:35;11.70;99.90
7384;DHT22;3733;47.994;8.820;2022-10-31T19:18:30;11.80;99.90
7384;DHT22;3733;47.994;8.820;2022-10-31T19:20:56;11.80;99.90